Time;durP1;ratioP1;P1;durP2;ratioP2;P2;SDS_P1;SDS_P2;PMS_P1;PMS_P2;Temp;Humidity;BMP_temperature;BMP_pressure;BME280_temperature;BME280_humidity;BME280_pressure;Samples;Min_cycle;Max_cycle;Signal;HPM_P1;HPM_P2
2023/05/23 00:01:44;;;;;;;7.63;4.90;;;13.70;99.90;;;;;;4162165;28;20038;-71
2023/05/23 00:03:46;;;;;;;10.33;4.50;;;13.70;99.90;;;;;;4163365;28;20476;-73
2023/05/23 00:05:47;;;;;;;8.40;4.63;;;13.70;99.90;;;;;;4162258;28;20057;-74
2023/05/23 00:07:48;;;;;;;6.77;3.77;;;13.70;99.90;;;;;;4163157;28;20026;-68
2023/05/23 00:09:49;;;;;;;7.87;4.50;;;13.70;99.90;;;;;;4162839;28;20551;-65
2023/05/23 00:11:50;;;;;;;6.73;4.00;;;13.70;99.90;;;;;;4161903;28;20045;-75
2023/05/23 00:13:52;;;;;;;5.67;4.17;;;13.60;99.90;;;;;;4163072;28;20079;-72
2023/05/23 00:15:53;;;;;;;8.17;4.57;;;13.70;99.90;;;;;;4162691;28;20477;-72
2023/05/23 00:17:56;;;;;;;7.73;4.00;;;13.70;99.90;;;;;;4163252;28;20382;-76
2023/05/23 00:19:57;;;;;;;7.47;4.13;;;13.60;99.90;;;;;;4161606;28;20037;-74
2023/05/23 00:21:58;;;;;;;7.30;3.80;;;13.60;99.90;;;;;;4162518;28;20053;-62
2023/05/23 00:24:01;;;;;;;8.57;4.63;;;13.60;99.90;;;;;;4161747;28;20087;-72
2023/05/23 00:26:02;;;;;;;6.40;4.03;;;13.50;99.90;;;;;;4163130;28;20033;-75
2023/05/23 00:28:03;;;;;;;7.47;4.27;;;13.50;99.90;;;;;;4161578;28;20144;-61
2023/05/23 00:30:05;;;;;;;8.30;4.17;;;13.50;99.90;;;;;;4163094;28;20025;-69
2023/05/23 00:32:06;;;;;;;9.20;3.87;;;13.50;99.90;;;;;;4161265;28;20079;-69
2023/05/23 00:34:07;;;;;;;6.30;4.60;;;13.50;99.90;;;;;;4162836;28;20084;-66
2023/05/23 00:36:09;;;;;;;6.37;4.50;;;13.50;99.90;;;;;;4161933;28;21049;-67
2023/05/23 00:38:10;;;;;;;5.53;4.33;;;13.40;99.90;;;;;;4162260;28;20091;-61
2023/05/23 00:40:11;;;;;;;8.17;4.40;;;13.40;99.90;;;;;;4162134;28;20433;-71
2023/05/23 00:42:13;;;;;;;5.60;4.07;;;13.40;99.90;;;;;;4161385;28;20029;-72
2023/05/23 00:44:14;;;;;;;8.07;5.70;;;13.30;99.90;;;;;;4162527;28;20025;-62
2023/05/23 00:46:15;;;;;;;6.43;3.83;;;13.30;99.90;;;;;;4161804;28;20037;-73
2023/05/23 00:48:17;;;;;;;6.53;5.00;;;13.30;99.90;;;;;;4162628;28;20029;-61
2023/05/23 00:50:19;;;;;;;8.37;4.60;;;13.30;99.90;;;;;;4161682;28;20029;-62
2023/05/23 00:52:21;;;;;;;6.10;4.33;;;13.10;99.90;;;;;;4161523;28;20049;-70
2023/05/23 00:54:26;;;;;;;10.37;5.10;;;13.10;99.90;;;;;;4161866;28;20025;-74
2023/05/23 00:56:28;;;;;;;6.03;4.00;;;13.10;99.90;;;;;;4162174;28;20080;-73
2023/05/23 00:58:30;;;;;;;7.50;4.40;;;13.10;99.90;;;;;;4160847;28;20049;-62
2023/05/23 01:00:33;;;;;;;6.80;4.90;;;13.10;99.90;;;;;;4162611;28;20527;-62
2023/05/23 01:02:44;;;;;;;8.33;4.70;;;13.10;99.90;;;;;;4160756;28;20029;-76
2023/05/23 01:04:53;;;;;;;8.43;4.63;;;13.00;99.90;;;;;;4162834;28;20013;-62
2023/05/23 01:06:55;;;;;;;6.27;4.20;;;13.00;99.90;;;;;;4160769;28;20079;-62
2023/05/23 01:09:00;;;;;;;10.30;4.83;;;12.90;99.90;;;;;;4162247;28;20041;-76
2023/05/23 01:11:08;;;;;;;7.83;5.10;;;12.90;99.90;;;;;;4160547;28;20064;-73
2023/05/23 01:13:45;;;;;;;7.87;4.23;;;12.90;99.90;;;;;;4162425;28;20038;-74
2023/05/23 01:16:10;;;;;;;6.53;4.50;;;12.90;99.90;;;;;;4142470;28;20038;-69
2023/05/23 01:18:53;;;;;;;9.47;5.00;;;12.80;99.90;;;;;;4145521;28;20092;-62
2023/05/23 01:21:00;;;;;;;9.77;4.90;;;12.80;99.90;;;;;;4144759;28;20096;-72
2023/05/23 01:23:35;;;;;;;7.80;4.57;;;12.80;99.90;;;;;;4145025;28;20092;-69
2023/05/23 01:25:49;;;;;;;11.10;5.13;;;12.70;99.90;;;;;;4144421;28;20101;-72
2023/05/23 01:28:04;;;;;;;9.47;5.13;;;12.60;99.90;;;;;;4145330;28;20426;-62
2023/05/23 01:30:09;;;;;;;8.43;5.00;;;12.60;99.90;;;;;;4144649;28;20084;-75
2023/05/23 01:32:12;;;;;;;8.00;4.50;;;12.60;99.90;;;;;;4145226;28;20092;-72
2023/05/23 01:34:13;;;;;;;8.60;4.70;;;12.50;99.90;;;;;;4145497;28;20051;-75
2023/05/23 01:36:15;;;;;;;5.77;3.80;;;12.40;99.90;;;;;;4145376;28;20022;-65
2023/05/23 01:38:16;;;;;;;7.57;4.77;;;12.40;99.90;;;;;;4144864;28;20065;-62
2023/05/23 01:40:17;;;;;;;6.20;4.63;;;12.40;99.90;;;;;;4145854;28;20029;-73
2023/05/23 01:42:18;;;;;;;6.80;5.20;;;12.40;99.90;;;;;;4143621;28;20485;-68
2023/05/23 01:44:22;;;;;;;13.37;4.83;;;12.40;99.90;;;;;;4145944;28;20474;-76
2023/05/23 01:46:24;;;;;;;9.50;5.00;;;12.40;99.90;;;;;;4144161;28;20482;-71
2023/05/23 01:48:26;;;;;;;8.63;5.73;;;12.40;99.90;;;;;;4144821;28;20112;-62
2023/05/23 01:50:28;;;;;;;11.10;5.23;;;12.30;99.90;;;;;;4144420;28;20022;-63
2023/05/23 01:52:29;;;;;;;8.73;4.40;;;12.30;99.90;;;;;;4145677;28;20096;-65
2023/05/23 01:54:34;;;;;;;7.00;4.37;;;12.20;99.90;;;;;;4144636;28;20426;-63
2023/05/23 01:56:35;;;;;;;9.13;4.90;;;12.20;99.90;;;;;;4144803;28;20437;-65
2023/05/23 01:58:36;;;;;;;7.00;4.60;;;12.20;99.90;;;;;;4144497;28;20026;-63
2023/05/23 02:00:37;;;;;;;7.97;4.97;;;12.20;99.90;;;;;;4144289;28;20103;-67
2023/05/23 02:02:39;;;;;;;9.43;4.43;;;12.10;99.90;;;;;;4148200;28;20543;-63
2023/05/23 02:04:40;;;;;;;11.57;4.47;;;12.20;99.90;;;;;;4161084;28;20043;-76
2023/05/23 02:06:41;;;;;;;7.30;4.53;;;12.00;99.90;;;;;;4161232;28;20536;-73
2023/05/23 02:08:42;;;;;;;8.03;4.77;;;12.00;99.90;;;;;;4160986;28;20033;-76
2023/05/23 02:10:43;;;;;;;7.73;4.37;;;12.00;99.90;;;;;;4161179;28;20041;-75
2023/05/23 02:12:45;;;;;;;9.27;5.40;;;12.00;99.90;;;;;;4160592;28;20091;-63
2023/05/23 02:14:46;;;;;;;10.40;5.17;;;11.90;99.90;;;;;;4161922;28;20095;-77
2023/05/23 02:16:47;;;;;;;11.00;5.90;;;11.90;99.90;;;;;;4160738;28;20029;-71
2023/05/23 02:18:51;;;;;;;9.07;5.40;;;11.80;99.90;;;;;;4162153;28;20109;-63
2023/05/23 02:20:52;;;;;;;9.87;4.80;;;11.80;99.90;;;;;;4163658;28;20951;-69
2023/05/23 02:22:53;;;;;;;7.87;5.93;;;11.60;99.90;;;;;;4165231;28;20041;-77
2023/05/23 02:24:54;;;;;;;8.97;5.67;;;11.60;99.90;;;;;;4163201;28;20152;-70
2023/05/23 02:26:55;;;;;;;11.90;5.83;;;11.50;99.90;;;;;;4165132;28;20559;-73
2023/05/23 02:28:56;;;;;;;11.03;6.20;;;11.40;99.90;;;;;;4163826;28;20045;-74
2023/05/23 02:30:58;;;;;;;9.23;5.17;;;11.20;99.90;;;;;;4164786;28;20555;-75
2023/05/23 02:33:03;;;;;;;12.13;6.07;;;11.10;99.90;;;;;;4163233;28;20061;-75
2023/05/23 02:35:05;;;;;;;11.27;5.40;;;11.10;99.90;;;;;;4164551;28;20072;-76
2023/05/23 02:37:07;;;;;;;8.37;5.27;;;11.00;99.90;;;;;;4163823;28;20021;-62
2023/05/23 02:39:08;;;;;;;11.53;5.90;;;11.00;99.90;;;;;;4164187;28;20025;-73
2023/05/23 02:41:09;;;;;;;7.67;6.00;;;11.10;99.90;;;;;;4164098;28;20432;-73
2023/05/23 02:43:10;;;;;;;10.20;6.07;;;11.10;99.90;;;;;;4162963;28;20456;-76
2023/05/23 02:45:11;;;;;;;10.40;6.40;;;11.10;99.90;;;;;;4164856;28;20029;-71
2023/05/23 02:47:13;;;;;;;13.43;7.13;;;11.10;99.90;;;;;;4162889;28;20041;-63
2023/05/23 02:49:14;;;;;;;12.40;6.93;;;11.10;99.90;;;;;;4164542;28;20037;-73
2023/05/23 02:51:15;;;;;;;13.77;6.47;;;11.10;99.90;;;;;;4163384;28;20459;-63
2023/05/23 02:53:17;;;;;;;13.57;6.23;;;11.10;99.90;;;;;;4164573;28;20432;-74
2023/05/23 02:55:18;;;;;;;16.07;9.70;;;11.10;99.90;;;;;;4163254;28;20099;-62
2023/05/23 02:57:19;;;;;;;11.77;8.80;;;11.10;99.90;;;;;;4164575;28;20100;-62
2023/05/23 02:59:21;;;;;;;16.00;11.97;;;11.20;99.90;;;;;;4163487;28;20420;-71
2023/05/23 03:01:23;;;;;;;17.00;11.77;;;11.20;99.90;;;;;;4164504;28;20068;-72
2023/05/23 03:03:24;;;;;;;18.27;9.57;;;11.30;99.90;;;;;;4162960;28;20358;-71
2023/05/23 03:05:25;;;;;;;16.83;9.03;;;11.40;99.90;;;;;;4163876;28;20083;-77
2023/05/23 03:07:26;;;;;;;13.50;8.20;;;11.50;99.90;;;;;;4163613;28;20076;-77
2023/05/23 03:09:27;;;;;;;14.33;7.80;;;11.60;99.90;;;;;;4163814;28;20025;-76
2023/05/23 03:11:28;;;;;;;12.37;8.67;;;11.60;99.90;;;;;;4163776;28;20551;-77
2023/05/23 03:13:30;;;;;;;16.23;7.20;;;11.60;99.90;;;;;;4163259;28;20092;-63
2023/05/23 03:15:31;;;;;;;12.83;7.77;;;11.70;99.90;;;;;;4164674;28;20029;-63
2023/05/23 03:17:32;;;;;;;11.60;7.03;;;11.80;99.90;;;;;;4162856;28;20025;-64
2023/05/23 03:19:33;;;;;;;21.00;8.27;;;11.90;99.90;;;;;;4163605;28;20490;-75
2023/05/23 03:21:35;;;;;;;10.30;6.77;;;12.00;99.90;;;;;;4162122;28;20045;-76
2023/05/23 03:23:36;;;;;;;13.83;7.50;;;12.00;99.90;;;;;;4164269;28;20021;-63
2023/05/23 03:25:37;;;;;;;17.70;7.30;;;12.10;99.90;;;;;;4162964;28;20021;-64
2023/05/23 03:27:38;;;;;;;12.60;7.00;;;12.20;99.90;;;;;;4164221;28;20091;-63
2023/05/23 03:29:39;;;;;;;14.57;7.63;;;12.30;99.90;;;;;;4162689;28;20022;-63
2023/05/23 03:31:41;;;;;;;15.27;6.50;;;12.40;99.90;;;;;;4163932;28;20563;-77
2023/05/23 03:33:42;;;;;;;11.37;7.03;;;12.50;99.90;;;;;;4162643;28;20583;-77
2023/05/23 03:35:43;;;;;;;13.67;6.73;;;12.60;99.90;;;;;;4163617;28;20033;-65
2023/05/23 03:37:44;;;;;;;13.20;7.00;;;12.70;99.90;;;;;;4162541;28;20563;-75
2023/05/23 03:39:45;;;;;;;12.90;6.20;;;12.80;99.90;;;;;;4162600;28;20091;-63
2023/05/23 03:41:46;;;;;;;10.87;5.00;;;12.90;99.90;;;;;;4162731;28;20076;-77
2023/05/23 03:43:48;;;;;;;11.27;5.00;;;13.00;99.90;;;;;;4162121;28;20045;-80
2023/05/23 03:45:49;;;;;;;16.93;5.97;;;12.90;99.90;;;;;;4163558;28;20111;-65
2023/05/23 03:47:50;;;;;;;15.90;5.73;;;13.00;99.90;;;;;;4162639;28;20495;-76
2023/05/23 03:49:51;;;;;;;12.50;4.90;;;13.10;99.90;;;;;;4163823;28;20045;-70
2023/05/23 03:51:52;;;;;;;9.07;5.17;;;13.10;99.90;;;;;;4162292;28;20375;-74
2023/05/23 03:53:53;;;;;;;10.90;5.27;;;13.30;99.90;;;;;;4163110;28;20156;-72
2023/05/23 03:55:54;;;;;;;9.97;4.43;;;13.40;99.90;;;;;;4162442;28;20030;-61
2023/05/23 03:57:55;;;;;;;13.43;5.40;;;13.40;99.90;;;;;;4162768;28;20103;-62
2023/05/23 03:59:57;;;;;;;11.00;4.50;;;13.50;99.90;;;;;;4161898;28;20030;-63
2023/05/23 04:02:00;;;;;;;12.30;4.37;;;13.60;99.90;;;;;;4162728;28;20041;-66
2023/05/23 04:04:01;;;;;;;7.57;4.13;;;13.80;99.90;;;;;;4162163;28;20477;-71
2023/05/23 04:06:03;;;;;;;16.77;6.13;;;14.00;99.90;;;;;;4145538;28;20025;-72
2023/05/23 04:08:04;;;;;;;6.50;4.17;;;14.30;99.90;;;;;;4162013;28;20094;-74
2023/05/23 04:10:06;;;;;;;10.93;4.37;;;14.70;99.90;;;;;;4161408;28;20547;-74
2023/05/23 04:12:08;;;;;;;8.87;5.93;;;15.20;99.90;;;;;;4158705;28;20052;-61
2023/05/23 04:14:09;;;;;;;9.00;4.50;;;15.70;99.90;;;;;;4161559;28;20108;-75
2023/05/23 04:16:11;;;;;;;10.40;5.30;;;16.10;99.90;;;;;;4162415;28;20464;-63
2023/05/23 04:18:13;;;;;;;11.57;5.23;;;16.60;99.90;;;;;;4161818;28;20025;-65
2023/05/23 04:20:14;;;;;;;12.68;4.32;;;17.00;99.90;;;;;;4163204;28;20103;-72
2023/05/23 04:22:16;;;;;;;12.43;4.40;;;17.30;99.90;;;;;;4161844;28;20045;-73
2023/05/23 04:24:17;;;;;;;8.95;4.40;;;17.70;99.90;;;;;;4162882;28;20091;-75
2023/05/23 04:26:19;;;;;;;6.68;4.57;;;18.10;99.90;;;;;;4161760;28;20099;-71
2023/05/23 04:28:20;;;;;;;10.13;4.38;;;18.50;99.90;;;;;;4160877;28;20409;-62
2023/05/23 04:30:22;;;;;;;6.80;3.92;;;19.10;99.90;;;;;;4157991;28;20045;-62
2023/05/23 04:32:24;;;;;;;10.02;5.03;;;19.60;99.90;;;;;;4162998;28;20029;-69
2023/05/23 04:34:25;;;;;;;7.60;4.40;;;19.90;99.90;;;;;;4161626;28;20026;-62
2023/05/23 04:36:27;;;;;;;9.77;4.85;;;20.00;99.90;;;;;;4162129;28;20030;-62
2023/05/23 04:38:28;;;;;;;10.10;4.38;;;20.40;99.90;;;;;;4161557;28;20037;-63
2023/05/23 04:40:30;;;;;;;10.27;4.25;;;21.00;99.90;;;;;;4162085;28;20037;-76
2023/05/23 04:42:32;;;;;;;8.68;3.70;;;21.30;99.90;;;;;;4161281;28;20408;-74
2023/05/23 04:44:36;;;;;;;9.63;4.13;;;21.40;99.90;;;;;;4160553;28;20037;-62
2023/05/23 04:46:40;;;;;;;7.85;3.67;;;21.80;99.90;;;;;;4162138;28;20033;-77
2023/05/23 04:48:43;;;;;;;7.80;3.22;;;22.30;99.90;;;;;;4159973;28;20446;-80
2023/05/23 04:50:46;;;;;;;8.48;3.67;;;22.70;99.90;;;;;;4145887;28;20441;-79
2023/05/23 04:52:48;;;;;;;5.03;3.80;;;23.00;99.90;;;;;;4144079;28;20068;-75
2023/05/23 04:54:49;;;;;;;7.18;2.92;;;23.20;99.70;;;;;;4155843;28;20030;-78
2023/05/23 04:56:50;;;;;;;5.25;2.88;;;23.50;99.00;;;;;;4161292;28;20046;-66
2023/05/23 04:58:51;;;;;;;5.18;3.22;;;23.50;98.10;;;;;;4161506;28;20057;-62
2023/05/23 05:00:53;;;;;;;5.78;2.88;;;23.70;97.70;;;;;;4160381;28;20079;-78
2023/05/23 05:02:54;;;;;;;11.20;3.28;;;23.60;97.20;;;;;;4160917;28;20436;-78
2023/05/23 05:04:55;;;;;;;6.95;3.17;;;23.90;96.60;;;;;;4158879;28;20096;-72
2023/05/23 05:06:56;;;;;;;5.50;3.10;;;23.80;96.10;;;;;;4161143;28;20064;-74
2023/05/23 05:08:57;;;;;;;5.75;2.95;;;23.70;95.90;;;;;;4160931;28;20038;-61
2023/05/23 05:10:58;;;;;;;5.72;2.88;;;23.60;95.60;;;;;;4160704;28;20547;-71
2023/05/23 05:12:59;;;;;;;4.45;3.72;;;23.60;95.40;;;;;;4161063;28;20049;-75
2023/05/23 05:15:02;;;;;;;12.45;3.47;;;23.70;95.10;;;;;;4161420;28;20123;-76
2023/05/23 05:17:03;;;;;;;5.82;3.67;;;24.00;94.60;;;;;;4160906;28;20558;-62
2023/05/23 05:19:04;;;;;;;12.68;3.78;;;24.50;94.10;;;;;;4160576;28;20034;-78
2023/05/23 05:21:06;;;;;;;10.05;3.10;;;24.60;93.40;;;;;;4161591;28;20456;-77
2023/05/23 05:23:08;;;;;;;7.20;3.65;;;24.70;92.90;;;;;;4160507;28;20034;-77
2023/05/23 05:25:10;;;;;;;8.68;3.58;;;24.40;92.60;;;;;;4161818;28;20071;-62
2023/05/23 05:27:11;;;;;;;4.25;3.42;;;24.50;92.70;;;;;;4161051;28;20017;-76
2023/05/23 05:29:13;;;;;;;9.07;3.83;;;24.60;92.30;;;;;;4161196;28;20386;-63
2023/05/23 05:31:14;;;;;;;6.75;2.80;;;24.50;92.10;;;;;;4160801;28;20539;-74
2023/05/23 05:33:17;;;;;;;14.35;4.75;;;24.60;92.10;;;;;;4161986;28;20045;-76
2023/05/23 05:35:18;;;;;;;14.98;4.78;;;24.60;91.90;;;;;;4160662;28;20079;-76
2023/05/23 05:37:20;;;;;;;11.25;5.50;;;24.90;91.90;;;;;;4160743;28;20103;-72
2023/05/23 05:39:23;;;;;;;11.50;4.60;;;24.50;91.80;;;;;;4160657;28;20025;-69
2023/05/23 05:41:25;;;;;;;19.33;4.40;;;23.80;92.20;;;;;;4161976;28;20429;-77
2023/05/23 05:43:28;;;;;;;21.77;4.75;;;23.10;92.80;;;;;;4160504;28;20095;-76
2023/05/23 05:45:29;;;;;;;19.75;5.65;;;22.20;93.40;;;;;;4161781;28;20091;-73
2023/05/23 05:47:30;;;;;;;20.00;5.53;;;22.00;94.30;;;;;;4161131;28;20030;-73
2023/05/23 05:49:31;;;;;;;14.20;5.25;;;22.00;94.30;;;;;;4160849;28;20056;-68
2023/05/23 05:51:32;;;;;;;23.45;6.03;;;22.50;93.90;;;;;;4160637;28;20026;-68
2023/05/23 05:53:33;;;;;;;13.65;5.35;;;22.60;93.70;;;;;;4160457;28;20049;-75
2023/05/23 05:55:35;;;;;;;16.13;5.85;;;22.20;93.70;;;;;;4161367;28;20052;-66
2023/05/23 05:57:39;;;;;;;13.02;6.00;;;22.00;94.10;;;;;;4159803;28;20060;-63
2023/05/23 05:59:40;;;;;;;21.00;5.43;;;21.50;94.60;;;;;;4161559;28;20473;-63
2023/05/23 06:01:43;;;;;;;11.52;5.20;;;21.30;95.20;;;;;;4160353;28;20068;-66
2023/05/23 06:03:44;;;;;;;19.30;5.50;;;21.40;95.20;;;;;;4160736;28;20038;-63
2023/05/23 06:05:45;;;;;;;20.23;6.22;;;21.50;95.10;;;;;;4160003;28;20025;-77
2023/05/23 06:07:48;;;;;;;13.32;5.32;;;21.70;95.20;;;;;;4161557;28;20063;-63
2023/05/23 06:09:50;;;;;;;15.90;5.78;;;21.70;95.10;;;;;;4160356;28;20026;-63
2023/05/23 06:11:51;;;;;;;12.40;5.75;;;22.00;95.10;;;;;;4160882;28;20041;-64
2023/05/23 06:13:52;;;;;;;11.98;5.32;;;22.10;94.90;;;;;;4160388;28;20052;-76
2023/05/23 06:15:53;;;;;;;13.85;5.03;;;21.90;95.10;;;;;;4161918;28;20083;-63
2023/05/23 06:17:54;;;;;;;18.88;5.63;;;22.10;95.10;;;;;;4160418;28;20025;-77
2023/05/23 06:19:55;;;;;;;10.05;5.03;;;22.10;95.20;;;;;;4160961;28;20061;-77
2023/05/23 06:21:56;;;;;;;15.80;5.18;;;22.10;95.10;;;;;;4160472;28;20103;-69
2023/05/23 06:23:57;;;;;;;13.82;5.20;;;21.60;95.50;;;;;;4160399;28;20038;-77
2023/05/23 06:25:59;;;;;;;13.93;5.53;;;21.20;96.00;;;;;;4160992;28;20079;-64
2023/05/23 06:28:00;;;;;;;14.23;5.28;;;20.60;96.80;;;;;;4160390;28;20483;-64
2023/05/23 06:30:05;;;;;;;15.07;5.65;;;20.70;97.20;;;;;;4161296;28;20022;-63
2023/05/23 06:32:06;;;;;;;16.02;5.38;;;20.70;97.20;;;;;;4159620;28;20123;-76
2023/05/23 06:34:08;;;;;;;12.48;5.32;;;20.60;97.50;;;;;;4161029;28;20139;-76
2023/05/23 06:36:09;;;;;;;14.98;5.10;;;20.60;97.70;;;;;;4160123;28;20120;-61
2023/05/23 06:38:10;;;;;;;16.98;7.13;;;20.60;98.00;;;;;;4160732;28;20068;-69
2023/05/23 06:40:14;;;;;;;9.55;4.50;;;20.30;98.30;;;;;;4160023;28;20068;-64
2023/05/23 06:42:15;;;;;;;13.15;4.82;;;20.30;98.70;;;;;;4161203;28;20382;-70
2023/05/23 06:44:17;;;;;;;13.77;5.25;;;20.40;98.80;;;;;;4159489;28;20075;-63
2023/05/23 06:46:18;;;;;;;8.35;4.55;;;20.60;98.70;;;;;;4161083;28;20037;-77
2023/05/23 06:48:19;;;;;;;10.85;4.72;;;20.60;98.50;;;;;;4159721;28;20042;-76
2023/05/23 06:50:20;;;;;;;8.98;4.20;;;20.70;98.50;;;;;;4160562;28;20029;-70
2023/05/23 06:52:21;;;;;;;6.53;4.00;;;20.90;98.30;;;;;;4159400;28;20099;-75
2023/05/23 06:54:22;;;;;;;9.52;3.58;;;20.90;98.30;;;;;;4160770;28;20045;-79
2023/05/23 06:56:24;;;;;;;7.05;4.10;;;21.20;98.10;;;;;;4159940;28;20045;-76
2023/05/23 06:58:25;;;;;;;7.72;3.25;;;21.50;97.20;;;;;;4159591;28;20041;-69
2023/05/23 07:00:26;;;;;;;5.50;2.97;;;21.70;96.70;;;;;;4160365;28;20099;-75
2023/05/23 07:02:27;;;;;;;3.55;2.40;;;22.00;96.30;;;;;;4159864;28;20030;-75
2023/05/23 07:04:29;;;;;;;3.80;2.55;;;21.80;95.70;;;;;;4161114;28;20037;-75
2023/05/23 07:06:30;;;;;;;4.55;1.77;;;22.10;95.30;;;;;;4162971;28;20041;-64
2023/05/23 07:08:31;;;;;;;3.55;1.95;;;22.50;94.20;;;;;;4163728;28;20444;-77
2023/05/23 07:10:34;;;;;;;4.68;1.73;;;22.60;92.70;;;;;;4162989;28;20424;-69
2023/05/23 07:12:35;;;;;;;5.30;1.85;;;22.50;92.20;;;;;;4163501;28;20080;-75
2023/05/23 07:14:37;;;;;;;4.72;1.38;;;22.60;91.80;;;;;;4161997;28;20076;-72
2023/05/23 07:16:38;;;;;;;4.68;1.95;;;22.30;91.10;;;;;;4164649;28;20481;-62
2023/05/23 07:18:39;;;;;;;2.30;1.55;;;22.30;91.10;;;;;;4162974;28;20029;-77
2023/05/23 07:20:40;;;;;;;1.83;1.27;;;22.40;91.00;;;;;;4163118;28;20045;-77
2023/05/23 07:22:41;;;;;;;7.68;2.00;;;22.50;90.80;;;;;;4163134;28;20029;-77
2023/05/23 07:24:42;;;;;;;4.05;1.88;;;22.40;90.70;;;;;;4162710;28;20037;-63
2023/05/23 07:26:44;;;;;;;6.63;1.45;;;22.30;90.70;;;;;;4163407;28;20029;-70
2023/05/23 07:28:45;;;;;;;3.20;1.80;;;22.30;90.60;;;;;;4162379;28;20176;-64
2023/05/23 07:30:46;;;;;;;2.10;1.70;;;22.40;90.40;;;;;;4163713;28;20037;-70
2023/05/23 07:32:48;;;;;;;7.95;1.98;;;22.40;90.10;;;;;;4162040;28;20114;-71
2023/05/23 07:34:49;;;;;;;5.30;1.95;;;22.20;90.10;;;;;;4163145;28;20025;-68
2023/05/23 07:36:50;;;;;;;2.75;2.08;;;22.00;90.10;;;;;;4161774;28;20072;-71
2023/05/23 07:38:52;;;;;;;7.45;1.70;;;21.80;90.40;;;;;;4163867;28;20037;-69
2023/05/23 07:40:53;;;;;;;7.30;1.88;;;22.00;90.60;;;;;;4162670;28;20026;-75
2023/05/23 07:42:54;;;;;;;3.25;1.92;;;22.20;90.10;;;;;;4163701;28;20108;-70
2023/05/23 07:44:55;;;;;;;3.63;1.80;;;22.30;89.80;;;;;;4162033;28;20038;-72
2023/05/23 07:46:56;;;;;;;2.58;1.30;;;22.60;89.70;;;;;;4164045;28;20060;-70
2023/05/23 07:48:58;;;;;;;4.03;1.77;;;22.60;88.60;;;;;;4162492;28;20087;-76
2023/05/23 07:50:59;;;;;;;4.57;1.88;;;22.80;88.50;;;;;;4163243;28;20026;-68
2023/05/23 07:53:00;;;;;;;9.35;2.10;;;23.30;87.80;;;;;;4161639;28;20045;-66
2023/05/23 07:55:02;;;;;;;4.65;1.90;;;23.60;86.90;;;;;;4162494;28;20413;-74
2023/05/23 07:57:03;;;;;;;3.72;1.67;;;23.80;86.60;;;;;;4162747;28;20025;-62
2023/05/23 07:59:04;;;;;;;4.30;2.30;;;23.90;85.70;;;;;;4162356;28;20037;-68
2023/05/23 08:01:05;;;;;;;5.55;1.60;;;24.00;85.50;;;;;;4144933;28;20092;-63
2023/05/23 08:03:07;;;;;;;7.13;1.90;;;23.80;84.80;;;;;;4161560;28;20037;-63
2023/05/23 08:05:08;;;;;;;3.05;2.00;;;23.50;84.80;;;;;;4162808;28;20088;-73
2023/05/23 08:07:10;;;;;;;3.55;2.25;;;23.30;85.20;;;;;;4161525;28;20091;-76
2023/05/23 08:09:11;;;;;;;9.18;2.10;;;23.30;85.50;;;;;;4163193;28;20034;-68
2023/05/23 08:11:13;;;;;;;6.20;1.80;;;23.20;85.70;;;;;;4160827;28;20088;-67
2023/05/23 08:13:15;;;;;;;4.05;1.98;;;23.10;85.60;;;;;;4162856;28;20025;-65
2023/05/23 08:15:16;;;;;;;5.18;1.77;;;23.40;85.90;;;;;;4161319;28;20123;-63
2023/05/23 08:17:17;;;;;;;2.45;2.00;;;23.40;84.90;;;;;;4162167;28;20037;-63
2023/05/23 08:19:18;;;;;;;8.15;2.08;;;23.40;84.50;;;;;;4161915;28;20029;-73
2023/05/23 08:21:19;;;;;;;8.45;2.05;;;23.50;84.20;;;;;;4161958;28;20088;-64
2023/05/23 08:23:21;;;;;;;6.38;1.80;;;23.50;83.50;;;;;;4162015;28;20041;-72
2023/05/23 08:25:23;;;;;;;4.40;1.63;;;23.50;83.50;;;;;;4161713;28;20029;-68
2023/05/23 08:27:24;;;;;;;11.35;2.42;;;23.50;83.30;;;;;;4162227;28;20034;-62
2023/05/23 08:29:26;;;;;;;5.68;2.15;;;23.20;83.50;;;;;;4161274;28;20038;-68
2023/05/23 08:31:28;;;;;;;5.05;2.28;;;23.30;84.20;;;;;;4161881;28;20141;-63
2023/05/23 08:33:29;;;;;;;6.38;2.00;;;23.30;83.80;;;;;;4143594;28;20117;-63
2023/05/23 08:35:35;;;;;;;3.15;2.17;;;23.40;83.60;;;;;;4162020;28;20807;-63
2023/05/23 08:37:36;;;;;;;5.00;1.75;;;23.40;83.60;;;;;;4160917;28;20041;-65
2023/05/23 08:39:37;;;;;;;7.32;2.05;;;23.20;83.30;;;;;;4161696;28;20037;-63
2023/05/23 08:41:38;;;;;;;8.02;1.83;;;23.10;83.70;;;;;;4161444;28;20084;-63
2023/05/23 08:43:39;;;;;;;2.53;1.70;;;23.00;84.10;;;;;;4162004;28;20111;-63
2023/05/23 08:45:41;;;;;;;7.18;2.05;;;23.10;84.00;;;;;;4161479;28;20427;-65
2023/05/23 08:47:43;;;;;;;9.27;2.03;;;23.10;84.10;;;;;;4162202;28;20026;-67
2023/05/23 08:49:45;;;;;;;4.40;1.83;;;23.20;84.20;;;;;;4143437;28;20113;-65
2023/05/23 08:51:49;;;;;;;5.63;2.05;;;23.20;83.60;;;;;;4162614;28;20409;-64
2023/05/23 08:53:52;;;;;;;2.88;1.52;;;23.30;84.00;;;;;;4160661;28;20505;-66
2023/05/23 08:55:55;;;;;;;3.58;1.95;;;23.40;83.70;;;;;;4161980;28;20025;-72
2023/05/23 08:58:00;;;;;;;2.60;1.88;;;23.30;83.20;;;;;;4161286;28;20071;-76
2023/05/23 09:00:09;;;;;;;3.95;1.85;;;23.20;83.30;;;;;;4161954;28;20017;-79
2023/05/23 09:02:11;;;;;;;3.33;1.98;;;23.20;83.20;;;;;;4161465;28;20025;-62
2023/05/23 09:04:12;;;;;;;7.15;1.90;;;23.20;82.80;;;;;;4161663;28;20025;-78
2023/05/23 09:06:13;;;;;;;5.47;2.15;;;23.10;82.70;;;;;;4161392;28;20033;-63
2023/05/23 09:08:15;;;;;;;3.95;1.73;;;23.10;83.00;;;;;;4161136;28;20112;-62
2023/05/23 09:10:19;;;;;;;5.10;1.33;;;23.20;82.80;;;;;;4161211;28;20501;-77
2023/05/23 09:12:22;;;;;;;4.97;1.65;;;23.30;82.50;;;;;;4161098;28;20174;-73
2023/05/23 09:14:24;;;;;;;3.70;1.70;;;23.40;82.70;;;;;;4162026;28;20042;-62
2023/05/23 09:16:34;;;;;;;5.57;1.58;;;23.60;82.00;;;;;;4160904;28;20021;-63
2023/05/23 09:18:43;;;;;;;4.10;1.50;;;23.70;81.60;;;;;;4162434;28;20453;-76
2023/05/23 09:20:44;;;;;;;3.53;1.75;;;24.00;81.70;;;;;;4160479;28;20030;-63
2023/05/23 09:22:47;;;;;;;8.07;1.65;;;24.30;81.70;;;;;;4161923;28;20025;-76
2023/05/23 09:24:51;;;;;;;3.25;1.50;;;24.50;81.40;;;;;;4160968;28;20025;-63
2023/05/23 09:26:52;;;;;;;4.28;1.63;;;24.80;81.00;;;;;;4162107;28;20092;-77
2023/05/23 09:28:58;;;;;;;4.78;1.90;;;24.90;80.30;;;;;;4142745;28;20476;-77
2023/05/23 09:31:09;;;;;;;4.88;2.05;;;25.20;80.70;;;;;;4162045;28;20025;-75
2023/05/23 09:33:13;;;;;;;3.80;1.63;;;25.20;78.90;;;;;;4159902;28;20482;-62
2023/05/23 09:35:14;;;;;;;6.15;1.73;;;25.10;78.40;;;;;;4161745;28;20057;-75
2023/05/23 09:37:17;;;;;;;2.55;1.55;;;24.90;78.20;;;;;;4159732;28;20185;-78
2023/05/23 09:39:19;;;;;;;6.35;1.55;;;24.80;78.10;;;;;;4161968;28;20018;-61
2023/05/23 09:41:20;;;;;;;4.20;1.60;;;24.70;78.10;;;;;;4160694;28;20540;-62
2023/05/23 09:43:21;;;;;;;2.72;1.42;;;24.60;78.90;;;;;;4161285;28;20021;-77
2023/05/23 09:45:29;;;;;;;2.15;1.60;;;24.60;78.70;;;;;;4160290;28;20477;-76
2023/05/23 09:47:30;;;;;;;7.03;2.00;;;24.70;77.40;;;;;;4161568;28;20095;-63
2023/05/23 09:49:31;;;;;;;4.80;1.73;;;24.70;78.50;;;;;;4160686;28;20037;-63
2023/05/23 09:51:32;;;;;;;5.38;1.80;;;24.80;78.40;;;;;;4160104;28;20079;-64
2023/05/23 09:53:34;;;;;;;4.82;1.50;;;24.90;78.50;;;;;;4160519;28;20068;-76
2023/05/23 09:55:35;;;;;;;5.00;1.48;;;24.90;77.80;;;;;;4160467;28;20071;-64
2023/05/23 09:57:41;;;;;;;3.90;1.80;;;24.80;77.70;;;;;;4160827;28;20095;-62
2023/05/23 09:59:51;;;;;;;3.85;1.50;;;24.80;77.90;;;;;;4160619;28;20033;-63
2023/05/23 10:01:56;;;;;;;7.80;2.17;;;24.90;78.10;;;;;;4160831;28;20068;-63
2023/05/23 10:03:58;;;;;;;3.15;1.83;;;25.00;76.90;;;;;;4160279;28;20025;-63
2023/05/23 10:06:07;;;;;;;2.05;1.50;;;24.80;76.60;;;;;;4160466;28;20506;-62
2023/05/23 10:08:22;;;;;;;7.55;2.15;;;24.50;76.30;;;;;;4159886;28;20037;-70
2023/05/23 10:10:25;;;;;;;14.00;2.72;;;24.40;76.00;;;;;;4161414;28;20029;-63
2023/05/23 10:12:44;;;;;;;4.80;1.80;;;24.30;75.90;;;;;;4160154;28;20079;-75
2023/05/23 10:14:53;;;;;;;2.53;1.00;;;24.20;74.50;;;;;;4161386;28;20091;-63
2023/05/23 10:17:09;;;;;;;5.72;1.58;;;24.20;75.30;;;;;;4159361;28;20110;-61
2023/05/23 10:19:40;;;;;;;2.28;1.30;;;24.30;74.70;;;;;;4160796;28;20045;-63
2023/05/23 10:21:54;;;;;;;4.38;1.40;;;24.10;72.40;;;;;;4131402;28;20088;-63
2023/05/23 10:24:02;;;;;;;2.80;1.27;;;23.90;73.80;;;;;;4161069;28;20063;-77
2023/05/23 10:26:04;;;;;;;3.85;1.40;;;24.00;74.20;;;;;;4160426;28;20068;-63
2023/05/23 10:28:06;;;;;;;5.05;2.28;;;24.00;74.20;;;;;;4160684;28;20037;-77
2023/05/23 10:30:08;;;;;;;4.10;1.70;;;24.20;74.50;;;;;;4160363;28;20080;-62
2023/05/23 10:32:11;;;;;;;1.60;1.27;;;24.40;74.50;;;;;;4161416;28;20022;-73
2023/05/23 10:34:30;;;;;;;2.65;1.50;;;24.50;73.00;;;;;;4159957;28;20057;-76
2023/05/23 10:36:44;;;;;;;4.50;1.42;;;24.40;71.60;;;;;;4161177;28;20037;-78